Impacts METAR Board
IDs:

KANB - Anniston Metro, AL, US

Updated at: 1500 UTC 15 Oct 2018
Potential Impact None Slight Moderate High
Time 15/03Z 15/04Z 15/05Z 15/06Z 15/07Z 15/08Z 15/09Z 15/10Z 15/11Z 15/12Z 15/13Z 15/14Z 15/15Z
Temp71 71 70 69 70 68 67 66 65 64 68 71 73
Dewpt59 58 57 58 58 58 58 58 58 58 60 62 63
Altim30.10 30.10 30.09 30.09 30.10 30.09 30.09 30.09 30.11 30.12 30.13 30.15 30.15
VIS10 10 10 10 10 10 10 10 10 10 10 10 10
CIG-- -- -- -- -- -- -- -- -- -- -- -- 44
CoverSCTFEWCLRCLRFEWCLRCLRCLRCLRCLRCLRCLRBKN
FltCatVFRVFRVFRVFRVFRVFRVFRVFRVFRVFRVFRVFRVFR
WX--------------------------
WDir506004070505070400407050
WSpd5 4 0 5 4 5 5 6 4 0 3 5 4
WGst-- -- -- -- -- -- -- -- -- -- -- -- --
Raw hourly METARs
KANB 150253Z AUTO 05005KT 10SM SCT120 22/15 A3010 RMK AO2 SLP186 T02170150 53016
KANB 150353Z AUTO 06004KT 10SM FEW120 22/14 A3010 RMK AO2 SLP185 T02170144
KANB 150453Z AUTO 00000KT 10SM CLR 21/14 A3009 RMK AO2 SLP180 T02110139
KANB 150553Z AUTO 04005KT 10SM CLR 21/14 A3009 RMK AO2 SLP180 T02060144 10233 20206 402890156 55003
KANB 150653Z AUTO 07004KT 10SM FEW120 21/14 A3010 RMK AO2 SLP182 T02110144
KANB 150753Z AUTO 05005KT 10SM CLR 20/14 A3009 RMK AO2 SLP179 T02000144
KANB 150853Z AUTO 05005KT 10SM CLR 19/14 A3009 RMK AO2 SLP182 T01940144 51001
KANB 150953Z AUTO 07006KT 10SM CLR 19/14 A3009 RMK AO2 SLP182 T01890144
KANB 151053Z AUTO 04004KT 10SM CLR 18/14 A3011 RMK AO2 SLP188 T01830144
KANB 151153Z AUTO 00000KT 10SM CLR 18/14 A3012 RMK AO2 SLP195 T01780144 10211 20178 53010
KANB 151253Z AUTO 04003KT 10SM CLR 20/16 A3013 RMK AO2 SLP198 T02000156
KANB 151353Z AUTO 07005KT 10SM CLR 22/17 A3015 RMK AO2 SLP202 T02170167
KANB 151453Z AUTO 05004KT 10SM BKN044 23/17 A3015 RMK AO2 SLP203 T02280172 51010



Page loaded:  15:45 UTC  |   08:45 AM Pacific  |   09:45 AM Mountain  |   10:45 AM Central  |   11:45 AM Eastern

 

ADVISORIES

FORECASTS

FORECASTS

OBSERVATIONS

USER TOOLS

ABOUT US